METAR Data
IDs: Format: Raw Decoded Include TAF

Data at: 1020 UTC 26 Sep 2018

KROW 260951Z AUTO 35009KT 10SM -RA OVC018 15/12 A3025 RMK AO2 LTG DSNT NE RAB50 SLP182 P0000 T01500122
KROW 260939Z AUTO 35009KT 10SM BKN016 BKN100 15/13 A3025 RMK AO2 T01500128
KROW 260851Z AUTO 36007KT 10SM FEW017 BKN075 OVC110 15/13 A3024 RMK AO2 SLP175 60001 T01500128 58002
KROW 260751Z AUTO 01011KT 10SM FEW017 OVC075 16/13 A3025 RMK AO2 RAB17E29 SLP178 P0000 T01560128
KROW 260651Z AUTO 05014KT 10SM OVC070 15/13 A3025 RMK AO2 LTG DSNT E RAE11 SLP182 P0001 T01500128 403560139
KROW 260551Z AUTO 03019KT 3SM RA BR SCT050 OVC070 16/13 A3025 RMK AO2 LTG DSNT NW-E RAB07 SLP185 P0027 60027 T01560133 10294 20156 53036
KROW 260542Z AUTO 03012G16KT 1 3/4SM +RA BKN050 OVC065 16/13 A3025 RMK AO2 LTG DSNT NE AND NW RAB07 P0019 T01560128
KROW 260451Z AUTO 03016KT 10SM BKN060 OVC100 21/10 A3019 RMK AO2 LTG DSNT NE SLP165 T02110100
KROW 260351Z AUTO 03014KT 10SM CLR 22/11 A3016 RMK AO2 PK WND 02029/0316 SLP155 T02220106
KROW 260251Z AUTO 02018G24KT 10SM SCT120 24/11 A3013 RMK AO2 SLP144 T02390111 53045
KROW 260151Z 03008G19KT 10SM CLR 25/12 A3006 RMK AO2 SLP122 T02500117
KROW 260051Z 05014KT 10SM CLR 26/11 A3001 RMK AO2 SLP107 T02610111
KROW 252351Z 06016G23KT 10SM BKN110 29/11 A2998 RMK AO2 SLP093 T02940111 10356 20294 53009
KROW 252251Z 07012KT 10SM BKN100 31/10 A2997 RMK AO2 SLP091 T03060100
KROW 252151Z 10005KT 10SM CLR 33/07 A2995 RMK AO2 SLP075 T03330067
KROW 252051Z VRB05KT 10SM CLR 35/07 A2995 RMK AO2 SLP075 T03500067 58018
KROW 251951Z 02009KT 10SM CLR 34/08 A2997 RMK AO2 SLP080 T03440078
KROW 251851Z 04007KT 10SM CLR 32/08 A2999 RMK AO2 SLP089 T03220083
KROW 251751Z 00000KT 10SM CLR 29/11 A3001 RMK AO2 SLP096 T02940106 10300 20144 50002
KROW 251651Z 09004KT 10SM CLR 26/10 A3002 RMK AO2 SLP106 T02560100
KROW 251551Z VRB03KT 10SM CLR 23/09 A3002 RMK AO2 SLP106 T02280089
KROW 251451Z 01005KT 10SM CLR 20/10 A3000 RMK AO2 SLP103 T02000100 51016
KROW 251351Z 35004KT 10SM CLR 17/09 A2999 RMK AO2 SLP101 T01720089
KROW 251251Z 33004KT 10SM CLR 15/08 A2997 RMK AO2 SLP092 T01500083
KROW 251151Z 00000KT 10SM CLR 14/07 A2995 RMK AO2 SLP079 T01440072 10206 20139 53007
KROW 251051Z AUTO 18007KT 10SM CLR 14/09 A2993 RMK AO2 SLP074 T01390094
KROW 250951Z AUTO 16005KT 10SM CLR 16/09 A2993 RMK AO2 SLP070 T01610094
KROW 250851Z AUTO 17007KT 10SM CLR 16/07 A2993 RMK AO2 SLP071 T01610067 55001
KROW 250751Z AUTO 24003KT 10SM CLR 18/07 A2992 RMK AO2 SLP067 T01780072
KROW 250651Z AUTO 20009KT 10SM CLR 20/08 A2992 RMK AO2 SLP067 T02000083 403280100
KROW 250551Z AUTO 20008KT 10SM CLR 20/10 A2993 RMK AO2 SLP073 T02000100 10317 20200 51005
KROW 250451Z AUTO 19009KT 10SM CLR 21/08 A2992 RMK AO2 SLP074 T02110083
KROW 250351Z AUTO 20007KT 10SM CLR 21/05 A2992 RMK AO2 SLP077 T02110050
KROW 250251Z 19008KT 10SM CLR 23/02 A2991 RMK AO2 SLP075 T02280022 53013
KROW 250151Z 18007KT 10SM CLR 25/00 A2989 RMK AO2 SLP069 T02500000
KROW 250051Z 18008KT 10SM CLR 28/M02 A2988 RMK AO2 SLP063 T02781017
KROW 242351Z 16010KT 10SM CLR 32/M03 A2987 RMK AO2 SLP055 T03171028 10328 20261 55007
KROW 242251Z 15010KT 10SM CLR 32/M03 A2987 RMK AO2 SLP056 T03221033